createdAt,value
2023-02-18T00:01:30.832Z,6.22
2023-02-18T00:03:58.549Z,6.21
2023-02-18T00:06:27.659Z,6.20
2023-02-18T00:08:54.900Z,6.19
2023-02-18T00:11:22.256Z,6.10
2023-02-18T00:13:53.830Z,6.12
2023-02-18T00:16:20.978Z,6.06
2023-02-18T00:18:48.393Z,6.08
2023-02-18T00:21:17.356Z,6.12
2023-02-18T00:23:44.225Z,6.09
2023-02-18T00:26:13.426Z,6.10
2023-02-18T00:28:43.002Z,6.03
2023-02-18T00:31:19.170Z,6.06
2023-02-18T00:33:46.417Z,6.06
2023-02-18T00:36:17.461Z,5.96
2023-02-18T00:38:53.041Z,5.99
2023-02-18T00:41:21.566Z,5.91
2023-02-18T00:43:49.014Z,5.89
2023-02-18T00:46:16.339Z,5.97
2023-02-18T00:48:43.535Z,5.97
2023-02-18T00:51:11.108Z,5.88
2023-02-18T00:53:38.906Z,5.93
2023-02-18T00:56:09.675Z,5.82
2023-02-18T00:58:36.954Z,5.92
2023-02-18T01:01:07.424Z,5.83
2023-02-18T01:03:36.215Z,5.79
2023-02-18T01:06:04.745Z,5.76
2023-02-18T01:08:31.667Z,5.72
2023-02-18T01:11:04.275Z,5.74
2023-02-18T01:13:31.778Z,5.68
2023-02-18T01:15:59.105Z,5.68
2023-02-18T01:18:27.030Z,5.67
2023-02-18T01:20:57.348Z,5.68
2023-02-18T01:23:23.996Z,5.61
2023-02-18T01:25:52.315Z,5.70
2023-02-18T01:28:21.163Z,5.69
2023-02-18T01:30:47.894Z,5.67
2023-02-18T01:33:14.544Z,5.69
2023-02-18T01:35:41.777Z,5.67
2023-02-18T01:38:09.293Z,5.72
2023-02-18T01:40:38.816Z,5.72
2023-02-18T01:43:05.674Z,5.68
2023-02-18T01:45:36.933Z,5.69
2023-02-18T01:48:07.191Z,5.72
2023-02-18T01:50:37.148Z,5.70
2023-02-18T01:53:04.053Z,5.70
2023-02-18T01:55:35.861Z,5.75
2023-02-18T01:58:03.049Z,5.76
2023-02-18T02:00:31.049Z,5.67
2023-02-18T02:02:57.706Z,5.73
2023-02-18T02:05:24.694Z,5.63
2023-02-18T02:07:53.124Z,5.65
2023-02-18T02:10:23.351Z,5.64
2023-02-18T02:12:59.520Z,5.58
2023-02-18T02:15:41.036Z,5.50
2023-02-18T02:18:35.624Z,5.52
2023-02-18T02:21:27.172Z,5.43
2023-02-18T02:24:08.661Z,5.42
2023-02-18T02:26:59.415Z,5.38
2023-02-18T02:29:50.890Z,5.35
2023-02-18T02:32:35.911Z,5.30
2023-02-18T02:35:09.643Z,5.28
2023-02-18T02:37:42.401Z,5.19
2023-02-18T02:40:38.833Z,5.28
2023-02-18T02:43:13.038Z,5.21
2023-02-18T02:46:07.557Z,5.16
2023-02-18T02:48:53.993Z,5.17
2023-02-18T02:51:33.301Z,5.21
2023-02-18T02:54:19.511Z,5.17
2023-02-18T02:56:46.610Z,5.19
2023-02-18T02:59:22.684Z,5.25
2023-02-18T03:02:14.427Z,5.24
2023-02-18T03:05:11.077Z,5.24
2023-02-18T03:07:58.529Z,5.33
2023-02-18T03:10:41.002Z,5.25
2023-02-18T03:13:07.506Z,5.32
2023-02-18T03:15:44.008Z,5.33
2023-02-18T03:18:43.257Z,5.34
2023-02-18T03:21:13.489Z,5.36
2023-02-18T03:23:46.794Z,5.37
2023-02-18T03:26:14.496Z,5.35
2023-02-18T03:28:41.833Z,5.29
2023-02-18T03:31:14.386Z,5.20
2023-02-18T03:33:46.645Z,5.24
2023-02-18T03:36:13.438Z,5.20
2023-02-18T03:38:46.607Z,5.28
2023-02-18T03:41:13.245Z,5.26
2023-02-18T03:43:41.714Z,5.24
2023-02-18T03:46:08.858Z,5.22
2023-02-18T03:48:35.850Z,5.15
2023-02-18T03:51:02.424Z,5.20
2023-02-18T03:53:29.020Z,5.17
2023-02-18T03:55:55.600Z,5.09
2023-02-18T03:58:22.250Z,5.06
2023-02-18T04:00:48.856Z,5.06
2023-02-18T04:03:15.554Z,5.09
2023-02-18T04:05:42.270Z,4.95
2023-02-18T04:08:08.910Z,5.02
2023-02-18T04:10:35.497Z,5.01
2023-02-18T04:13:02.292Z,4.97
2023-02-18T04:15:28.974Z,4.96
2023-02-18T04:17:55.629Z,4.92
2023-02-18T04:20:22.660Z,4.81
2023-02-18T04:22:49.386Z,4.82
2023-02-18T04:25:16.105Z,4.85
2023-02-18T04:27:42.808Z,4.79
2023-02-18T04:30:09.749Z,4.76
2023-02-18T04:32:36.456Z,4.74
2023-02-18T04:35:03.370Z,4.67
2023-02-18T04:37:30.032Z,4.66
2023-02-18T04:39:56.657Z,4.69
2023-02-18T04:42:24.068Z,4.64
2023-02-18T04:44:50.673Z,4.58
2023-02-18T04:47:17.352Z,4.65
2023-02-18T04:49:43.938Z,4.61
2023-02-18T04:52:10.512Z,4.52
2023-02-18T04:54:37.113Z,4.50
2023-02-18T04:57:03.831Z,4.52
2023-02-18T04:59:30.428Z,4.47
2023-02-18T05:01:59.281Z,4.52
2023-02-18T05:04:26.068Z,4.47
2023-02-18T05:06:52.701Z,4.47
2023-02-18T05:09:19.320Z,4.57
2023-02-18T05:11:46.014Z,4.53
2023-02-18T05:14:12.604Z,4.45
2023-02-18T05:16:39.374Z,4.39
2023-02-18T05:19:06.159Z,4.43
2023-02-18T05:21:33.240Z,4.46
2023-02-18T05:23:59.833Z,4.51
2023-02-18T05:26:26.407Z,4.38
2023-02-18T05:28:53.059Z,4.42
2023-02-18T05:31:19.720Z,4.42
2023-02-18T05:33:49.454Z,4.43
2023-02-18T05:36:16.073Z,4.40
2023-02-18T05:38:42.718Z,4.49
2023-02-18T05:41:09.284Z,4.47
2023-02-18T05:43:55.868Z,4.55
2023-02-18T05:46:22.719Z,4.52
2023-02-18T05:48:49.414Z,4.57
2023-02-18T05:51:16.154Z,4.60
2023-02-18T05:53:42.794Z,4.57
2023-02-18T05:56:09.742Z,4.62
2023-02-18T05:58:36.637Z,4.70
2023-02-18T06:01:03.828Z,4.74
2023-02-18T06:03:30.646Z,4.80
2023-02-18T06:05:57.595Z,4.85
2023-02-18T06:08:24.561Z,4.90
2023-02-18T06:10:51.361Z,4.85
2023-02-18T06:13:18.189Z,4.83
2023-02-18T06:15:45.037Z,4.84
2023-02-18T06:18:12.126Z,4.89
2023-02-18T06:20:40.111Z,4.90
2023-02-18T06:23:07.705Z,4.94
2023-02-18T06:25:34.633Z,5.02
2023-02-18T06:28:01.344Z,4.99
2023-02-18T06:30:28.294Z,5.02
2023-02-18T06:32:55.157Z,5.04
2023-02-18T06:35:21.788Z,5.07
2023-02-18T06:37:48.680Z,5.07
2023-02-18T06:40:15.493Z,5.11
2023-02-18T06:42:42.217Z,5.09
2023-02-18T06:45:09.028Z,5.16
2023-02-18T06:47:35.730Z,5.17
2023-02-18T06:50:02.526Z,5.21
2023-02-18T06:52:30.819Z,5.19
2023-02-18T06:54:57.576Z,5.19
2023-02-18T06:57:24.259Z,5.25
2023-02-18T06:59:51.095Z,5.25
2023-02-18T07:02:17.785Z,5.25
2023-02-18T07:04:46.093Z,5.27
2023-02-18T07:07:12.808Z,5.28
2023-02-18T07:09:39.609Z,5.31
2023-02-18T07:12:06.601Z,5.27
2023-02-18T07:14:33.353Z,5.28
2023-02-18T07:17:00.109Z,5.32
2023-02-18T07:19:26.774Z,5.34
2023-02-18T07:21:54.479Z,5.34
2023-02-18T07:24:21.259Z,5.39
2023-02-18T07:26:47.984Z,5.33
2023-02-18T07:29:14.702Z,5.30
2023-02-18T07:31:42.058Z,5.36
2023-02-18T07:34:08.911Z,5.44
2023-02-18T07:36:35.824Z,5.50
2023-02-18T07:39:02.601Z,5.58
2023-02-18T07:41:29.240Z,5.70
2023-02-18T07:43:55.954Z,5.71
2023-02-18T07:46:22.674Z,5.71
2023-02-18T07:48:49.393Z,5.75
2023-02-18T07:51:16.107Z,5.74
2023-02-18T07:53:42.929Z,5.70
2023-02-18T07:56:09.934Z,5.75
2023-02-18T07:58:38.062Z,5.80
2023-02-18T08:01:10.017Z,5.77
2023-02-18T08:03:36.760Z,5.76
2023-02-18T08:06:05.049Z,5.86
2023-02-18T08:08:33.674Z,5.93
2023-02-18T08:11:13.435Z,5.90
2023-02-18T08:13:46.953Z,5.99
2023-02-18T08:16:14.439Z,6.10
2023-02-18T08:18:41.226Z,6.11
2023-02-18T08:21:07.948Z,6.18
2023-02-18T08:23:34.644Z,6.31
2023-02-18T08:26:01.357Z,6.40
2023-02-18T08:28:28.145Z,6.48
2023-02-18T08:30:55.184Z,6.52
2023-02-18T08:33:23.065Z,6.57
2023-02-18T08:35:51.381Z,6.71
2023-02-18T08:38:18.210Z,6.71
2023-02-18T08:40:45.304Z,6.75
2023-02-18T08:43:12.436Z,6.75
2023-02-18T08:45:39.822Z,6.76
2023-02-18T08:48:18.111Z,6.71
2023-02-18T08:50:47.208Z,6.72
2023-02-18T08:53:14.030Z,6.78
2023-02-18T08:55:41.298Z,6.74
2023-02-18T08:58:08.900Z,6.73
2023-02-18T09:00:35.896Z,6.74
2023-02-18T09:03:02.691Z,6.77
2023-02-18T09:05:29.507Z,6.83
2023-02-18T09:07:56.486Z,6.74
2023-02-18T09:10:23.156Z,6.78
2023-02-18T09:12:49.783Z,6.78
2023-02-18T09:15:16.528Z,6.71
2023-02-18T09:17:43.169Z,6.72
2023-02-18T09:20:10.291Z,6.77
2023-02-18T09:22:37.040Z,6.73
2023-02-18T09:25:04.289Z,6.73
2023-02-18T09:27:30.945Z,6.79
2023-02-18T09:29:57.696Z,6.74
2023-02-18T09:32:34.464Z,6.87
2023-02-18T09:35:02.873Z,6.84
2023-02-18T09:37:29.639Z,6.83
2023-02-18T09:39:56.615Z,6.89
2023-02-18T09:42:29.782Z,6.87
2023-02-18T09:45:00.273Z,6.80
2023-02-18T09:47:43.392Z,6.71
2023-02-18T09:50:25.052Z,6.60
2023-02-18T09:52:52.629Z,6.46
2023-02-18T09:55:19.277Z,6.36
2023-02-18T09:57:49.117Z,6.47
2023-02-18T10:00:25.840Z,6.38
2023-02-18T10:03:02.115Z,6.31
2023-02-18T10:05:30.666Z,6.26
2023-02-18T10:08:02.360Z,6.30
2023-02-18T10:10:46.485Z,6.28
2023-02-18T10:13:16.455Z,6.21
2023-02-18T10:15:43.834Z,6.19
2023-02-18T10:18:32.005Z,6.13
2023-02-18T10:21:18.256Z,6.16
2023-02-18T10:23:55.938Z,6.13
2023-02-18T10:26:22.528Z,6.08
2023-02-18T10:28:49.158Z,6.02
2023-02-18T10:31:20.776Z,5.96
2023-02-18T10:34:05.382Z,6.07
2023-02-18T10:36:42.882Z,5.95
2023-02-18T10:39:32.712Z,5.95
2023-02-18T10:42:05.349Z,5.97
2023-02-18T10:44:45.032Z,5.95
2023-02-18T10:47:35.563Z,5.84
2023-02-18T10:50:33.753Z,5.79
2023-02-18T10:53:03.341Z,5.80
2023-02-18T10:55:39.389Z,5.80
2023-02-18T10:58:54.957Z,5.84
2023-02-18T11:01:22.218Z,5.83
2023-02-18T11:03:51.467Z,5.75
2023-02-18T11:06:22.476Z,5.71
2023-02-18T11:08:49.704Z,5.76
2023-02-18T11:11:22.477Z,5.85
2023-02-18T11:14:00.714Z,5.83
2023-02-18T11:16:44.874Z,5.87
2023-02-18T11:19:42.058Z,5.93
2023-02-18T11:22:08.592Z,5.92
2023-02-18T11:24:39.511Z,5.97
2023-02-18T11:27:24.891Z,5.91
2023-02-18T11:29:54.439Z,5.95
2023-02-18T11:32:21.333Z,5.95
2023-02-18T11:34:50.023Z,6.00
2023-02-18T11:37:21.842Z,6.04
2023-02-18T11:39:50.929Z,6.06
2023-02-18T11:42:20.177Z,6.00
2023-02-18T11:44:51.183Z,6.04
2023-02-18T11:47:17.784Z,6.01
2023-02-18T11:49:59.975Z,6.03
2023-02-18T11:52:38.800Z,6.10
2023-02-18T11:55:16.509Z,6.01
2023-02-18T11:57:46.806Z,5.98
2023-02-18T12:00:42.484Z,6.03
2023-02-18T12:03:30.820Z,5.95
2023-02-18T12:06:00.523Z,5.92
2023-02-18T12:08:40.617Z,5.90
2023-02-18T12:11:12.109Z,5.93
2023-02-18T12:13:52.764Z,5.83
2023-02-18T12:16:30.731Z,5.88
2023-02-18T12:19:33.617Z,5.85
2023-02-18T12:22:22.433Z,5.91
2023-02-18T12:25:13.941Z,6.02
2023-02-18T12:28:12.548Z,5.91
2023-02-18T12:31:12.721Z,5.90
2023-02-18T12:34:22.172Z,5.95
2023-02-18T12:36:59.346Z,6.01
2023-02-18T12:39:44.727Z,6.01
2023-02-18T12:42:23.178Z,5.92
2023-02-18T12:45:08.974Z,5.91
2023-02-18T12:48:01.721Z,5.84
2023-02-18T12:50:35.894Z,5.78
2023-02-18T12:53:24.416Z,5.82
2023-02-18T12:55:57.721Z,5.83
2023-02-18T12:58:44.137Z,5.69
2023-02-18T13:01:35.642Z,5.73
2023-02-18T13:04:20.981Z,5.72
2023-02-18T13:07:16.778Z,5.60
2023-02-18T13:09:46.493Z,5.57
2023-02-18T13:12:28.551Z,5.64
2023-02-18T13:15:01.983Z,5.67
2023-02-18T13:17:32.985Z,5.65
2023-02-18T13:20:03.636Z,5.89
2023-02-18T13:22:30.612Z,5.75
2023-02-18T13:24:58.998Z,5.76
2023-02-18T13:27:34.114Z,5.81
2023-02-18T13:30:35.577Z,6.02
2023-02-18T13:33:19.845Z,5.99
2023-02-18T13:36:03.462Z,5.93
2023-02-18T13:38:36.067Z,5.94
2023-02-18T13:41:03.186Z,6.04
2023-02-18T13:43:35.006Z,6.01
2023-02-18T13:46:08.771Z,6.01
2023-02-18T13:49:04.537Z,5.86
2023-02-18T13:51:38.581Z,5.81
2023-02-18T13:54:23.945Z,5.83
2023-02-18T13:56:54.590Z,5.95
2023-02-18T13:59:48.951Z,5.94
2023-02-18T14:02:25.921Z,5.95
2023-02-18T14:04:57.891Z,5.84
2023-02-18T14:07:27.682Z,6.00
2023-02-18T14:09:59.209Z,5.91
2023-02-18T14:13:01.513Z,6.01
2023-02-18T14:15:28.254Z,5.93
2023-02-18T14:18:23.125Z,5.75
2023-02-18T14:20:53.088Z,5.89
2023-02-18T14:23:22.855Z,5.76
2023-02-18T14:25:52.183Z,5.71
2023-02-18T14:28:34.510Z,5.69
2023-02-18T14:31:15.933Z,5.87
2023-02-18T14:34:02.816Z,5.78
2023-02-18T14:36:55.103Z,5.66
2023-02-18T14:39:38.922Z,5.90
2023-02-18T14:42:18.103Z,5.76
2023-02-18T14:45:03.841Z,5.75
2023-02-18T14:47:50.669Z,5.78
2023-02-18T14:50:18.786Z,5.65
2023-02-18T14:52:58.074Z,5.60
2023-02-18T14:55:34.696Z,5.81
2023-02-18T14:58:14.098Z,5.82
2023-02-18T15:00:43.110Z,5.79
2023-02-18T15:03:17.674Z,5.83
2023-02-18T15:05:45.548Z,5.85
2023-02-18T15:08:23.284Z,5.78
2023-02-18T15:11:02.910Z,5.77
2023-02-18T15:13:31.871Z,5.80
2023-02-18T15:16:02.166Z,5.83
2023-02-18T15:18:34.511Z,5.85
2023-02-18T15:21:02.792Z,5.93
2023-02-18T15:23:31.929Z,5.90
2023-02-18T15:25:59.017Z,5.94
2023-02-18T15:28:31.240Z,6.15
2023-02-18T15:31:03.439Z,5.95
2023-02-18T15:33:30.511Z,5.82
2023-02-18T15:36:15.859Z,5.95
2023-02-18T15:38:47.063Z,5.93
2023-02-18T15:41:18.395Z,5.86
2023-02-18T15:44:22.238Z,5.69
2023-02-18T15:46:49.267Z,5.75
2023-02-18T15:49:18.239Z,5.60
2023-02-18T15:51:46.915Z,5.64
2023-02-18T15:54:23.334Z,5.64
2023-02-18T15:56:53.300Z,5.62
2023-02-18T15:59:25.551Z,5.49
2023-02-18T16:02:09.263Z,5.37
2023-02-18T16:04:42.578Z,5.36
2023-02-18T16:07:29.598Z,5.23
2023-02-18T16:10:16.295Z,5.11
2023-02-18T16:12:48.524Z,5.08
2023-02-18T16:15:25.328Z,4.91
2023-02-18T16:17:52.123Z,4.99
2023-02-18T16:20:27.884Z,4.92
2023-02-18T16:22:57.654Z,4.67
2023-02-18T16:25:36.784Z,4.65
2023-02-18T16:28:10.480Z,4.68
2023-02-18T16:30:37.647Z,4.82
2023-02-18T16:33:05.420Z,4.64
2023-02-18T16:35:47.402Z,4.69
2023-02-18T16:38:21.755Z,4.66
2023-02-18T16:40:49.040Z,4.65
2023-02-18T16:43:18.392Z,4.56
2023-02-18T16:45:49.193Z,4.51
2023-02-18T16:48:41.163Z,4.47
2023-02-18T16:51:14.068Z,4.44
2023-02-18T16:53:42.625Z,4.47
2023-02-18T16:56:18.383Z,4.45
2023-02-18T16:58:44.989Z,4.61
2023-02-18T17:01:44.060Z,4.49
2023-02-18T17:04:13.437Z,4.52
2023-02-18T17:06:40.403Z,4.47
2023-02-18T17:09:20.487Z,4.37
2023-02-18T17:11:48.938Z,4.37
2023-02-18T17:14:20.040Z,4.40
2023-02-18T17:16:47.938Z,4.48
2023-02-18T17:19:22.199Z,4.47
2023-02-18T17:21:49.214Z,4.44
2023-02-18T17:24:18.182Z,4.44
2023-02-18T17:26:45.191Z,4.36
2023-02-18T17:29:12.125Z,4.37
2023-02-18T17:31:46.924Z,4.30
2023-02-18T17:34:30.800Z,4.29
2023-02-18T17:36:57.635Z,4.26
2023-02-18T17:39:24.603Z,4.17
2023-02-18T17:41:54.586Z,4.16
2023-02-18T17:44:22.802Z,4.10
2023-02-18T17:46:52.805Z,4.05
2023-02-18T17:49:19.518Z,3.97
2023-02-18T17:51:47.490Z,4.08
2023-02-18T17:54:19.388Z,3.93
2023-02-18T17:56:46.629Z,3.86
2023-02-18T17:59:13.471Z,3.87
2023-02-18T18:01:41.072Z,3.84
2023-02-18T18:04:15.832Z,3.92
2023-02-18T18:06:42.824Z,3.95
2023-02-18T18:09:11.113Z,3.84
2023-02-18T18:11:38.023Z,3.82
2023-02-18T18:14:04.772Z,3.83
2023-02-18T18:16:31.506Z,3.73
2023-02-18T18:18:58.200Z,3.78
2023-02-18T18:21:33.430Z,3.88
2023-02-18T18:24:00.022Z,3.95
2023-02-18T18:26:26.748Z,3.83
2023-02-18T18:28:53.733Z,3.83
2023-02-18T18:31:21.237Z,3.86
2023-02-18T18:33:50.570Z,3.87
2023-02-18T18:36:19.569Z,3.80
2023-02-18T18:38:46.456Z,3.89
2023-02-18T18:41:15.173Z,3.87
2023-02-18T18:43:42.002Z,3.87
2023-02-18T18:46:08.797Z,3.81
2023-02-18T18:48:35.570Z,3.77
2023-02-18T18:51:02.418Z,3.67
2023-02-18T18:53:31.568Z,3.61
2023-02-18T18:56:01.020Z,3.61
2023-02-18T18:58:28.006Z,3.52
2023-02-18T19:00:57.750Z,3.50
2023-02-18T19:03:25.934Z,3.42
2023-02-18T19:05:53.097Z,3.30
2023-02-18T19:08:20.460Z,3.21
2023-02-18T19:10:52.561Z,3.13
2023-02-18T19:13:29.119Z,3.05
2023-02-18T19:16:21.253Z,2.95
2023-02-18T19:18:48.259Z,2.84
2023-02-18T19:21:15.057Z,2.86
2023-02-18T19:23:41.766Z,2.88
2023-02-18T19:26:08.498Z,2.76
2023-02-18T19:28:35.255Z,2.74
2023-02-18T19:31:02.203Z,2.85
2023-02-18T19:33:28.933Z,2.73
2023-02-18T19:35:55.666Z,2.74
2023-02-18T19:38:22.260Z,2.75
2023-02-18T19:40:49.264Z,2.74
2023-02-18T19:43:15.918Z,2.81
2023-02-18T19:45:44.823Z,2.82
2023-02-18T19:48:12.111Z,2.85
2023-02-18T19:50:40.211Z,2.92
2023-02-18T19:53:06.832Z,2.88
2023-02-18T19:55:34.653Z,2.90
2023-02-18T19:58:01.415Z,2.89
2023-02-18T20:00:28.055Z,2.90
2023-02-18T20:02:54.694Z,2.95
2023-02-18T20:05:21.345Z,2.96
2023-02-18T20:07:48.050Z,2.94
2023-02-18T20:10:16.578Z,2.94
2023-02-18T20:12:43.590Z,2.95
2023-02-18T20:15:10.560Z,2.98
2023-02-18T20:17:38.312Z,2.99
2023-02-18T20:20:05.570Z,2.96
2023-02-18T20:22:32.181Z,2.99
2023-02-18T20:24:59.947Z,2.92
2023-02-18T20:27:26.595Z,2.90
2023-02-18T20:29:53.249Z,2.97
2023-02-18T20:32:20.019Z,2.85
2023-02-18T20:34:46.742Z,2.85
2023-02-18T20:37:13.532Z,2.85
2023-02-18T20:39:40.291Z,2.86
2023-02-18T20:42:15.884Z,2.71
2023-02-18T20:44:43.866Z,2.79
2023-02-18T20:47:10.559Z,2.72
2023-02-18T20:49:37.237Z,2.80
2023-02-18T20:52:04.116Z,2.76
2023-02-18T20:54:31.057Z,2.73
2023-02-18T20:56:57.763Z,2.75
2023-02-18T20:59:24.474Z,2.78
2023-02-18T21:01:51.132Z,2.75
2023-02-18T21:04:19.709Z,2.79
2023-02-18T21:06:47.404Z,2.77
2023-02-18T21:09:15.091Z,2.89
2023-02-18T21:11:42.382Z,2.78
2023-02-18T21:14:09.251Z,2.76
2023-02-18T21:16:39.219Z,2.69
2023-02-18T21:19:07.598Z,2.65
2023-02-18T21:21:34.871Z,2.69
2023-02-18T21:24:01.559Z,2.72
2023-02-18T21:26:28.721Z,2.66
2023-02-18T21:28:58.005Z,2.53
2023-02-18T21:31:28.237Z,2.50
2023-02-18T21:33:55.429Z,2.52
2023-02-18T21:36:22.691Z,2.53
2023-02-18T21:38:53.940Z,2.51
2023-02-18T21:41:20.865Z,2.57
2023-02-18T21:43:48.054Z,2.54
2023-02-18T21:46:20.807Z,2.58
2023-02-18T21:49:02.888Z,2.64
2023-02-18T21:51:50.016Z,2.59
2023-02-18T21:54:18.265Z,2.60
2023-02-18T21:56:44.873Z,2.65
2023-02-18T21:59:11.644Z,2.62
2023-02-18T22:01:38.607Z,2.70
2023-02-18T22:04:05.237Z,2.87
2023-02-18T22:06:31.896Z,2.73
2023-02-18T22:09:00.833Z,2.74
2023-02-18T22:11:28.334Z,2.67
2023-02-18T22:13:55.023Z,2.65
2023-02-18T22:16:21.765Z,2.66
2023-02-18T22:18:48.395Z,2.74
2023-02-18T22:21:14.974Z,2.77
2023-02-18T22:23:41.649Z,2.73
2023-02-18T22:26:09.642Z,2.82
2023-02-18T22:28:36.501Z,2.98
2023-02-18T22:31:08.421Z,2.83
2023-02-18T22:33:35.470Z,2.74
2023-02-18T22:36:04.285Z,2.79
2023-02-18T22:38:31.004Z,2.67
2023-02-18T22:41:03.542Z,2.82
2023-02-18T22:43:30.180Z,2.74
2023-02-18T22:45:56.795Z,2.66
2023-02-18T22:48:23.441Z,2.67
2023-02-18T22:50:50.029Z,2.66
2023-02-18T22:53:16.726Z,2.64
2023-02-18T22:55:43.313Z,2.66
2023-02-18T22:58:09.920Z,2.87
2023-02-18T23:00:36.598Z,2.83
2023-02-18T23:03:03.284Z,2.78
2023-02-18T23:05:29.891Z,2.86
2023-02-18T23:07:56.832Z,2.78
2023-02-18T23:10:23.652Z,2.79
2023-02-18T23:12:52.258Z,2.82
2023-02-18T23:15:21.219Z,2.75
2023-02-18T23:17:49.131Z,2.80
2023-02-18T23:20:15.913Z,2.85
2023-02-18T23:22:42.625Z,2.88
2023-02-18T23:25:12.057Z,2.91
2023-02-18T23:27:39.040Z,2.78
2023-02-18T23:30:05.916Z,2.79
2023-02-18T23:32:35.271Z,2.84
2023-02-18T23:35:02.160Z,2.98
2023-02-18T23:37:47.558Z,2.83
2023-02-18T23:40:14.778Z,2.86
2023-02-18T23:42:41.433Z,2.71
2023-02-18T23:45:09.894Z,2.82
2023-02-18T23:47:38.816Z,2.79
2023-02-18T23:50:05.665Z,2.69
2023-02-18T23:52:32.343Z,2.75
2023-02-18T23:54:58.968Z,2.66
2023-02-18T23:57:28.194Z,2.65
2023-02-18T23:59:54.769Z,2.78
